Time;durP1;ratioP1;P1;durP2;ratioP2;P2;SDS_P1;SDS_P2;PMS_P1;PMS_P2;Temp;Humidity;BMP_temperature;BMP_pressure;BME280_temperature;BME280_humidity;BME280_pressure;Samples;Min_cycle;Max_cycle;Signal;HPM_P1;HPM_P2
2023/12/25 00:01:04;;;;;;;6.97;1.80;;;;;;;12.65;99.71;99839.72;10511586;28;20048;-64
2023/12/25 00:06:28;;;;;;;14.00;2.17;;;;;;;12.59;99.91;99834.88;10521856;28;20114;-62
2023/12/25 00:11:50;;;;;;;8.80;2.05;;;;;;;12.62;99.35;99851.09;10519333;28;20054;-62
2023/12/25 00:17:13;;;;;;;7.35;1.45;;;;;;;12.65;98.66;99848.38;10548169;28;20044;-63
2023/12/25 00:22:35;;;;;;;15.73;2.42;;;;;;;12.68;98.82;99826.56;10560886;28;22093;-63
2023/12/25 00:27:56;;;;;;;8.38;1.63;;;;;;;12.66;98.78;99842.25;10519124;28;20063;-62
2023/12/25 00:33:18;;;;;;;8.93;1.63;;;;;;;12.67;99.46;99840.50;10510965;28;20044;-63
2023/12/25 00:38:40;;;;;;;9.70;2.00;;;;;;;12.72;99.80;99836.72;10514310;28;20131;-63
2023/12/25 00:44:02;;;;;;;10.23;1.80;;;;;;;12.73;99.92;99837.53;10497771;28;20063;-64
2023/12/25 00:49:24;;;;;;;12.45;2.00;;;;;;;12.75;99.88;99849.53;10512158;28;20046;-63
2023/12/25 00:54:46;;;;;;;12.45;2.03;;;;;;;12.67;99.99;99854.28;10522610;28;20048;-63
2023/12/25 01:00:08;;;;;;;9.73;1.75;;;;;;;12.69;100.00;99860.22;10515313;28;20063;-63
2023/12/25 01:05:30;;;;;;;9.10;1.55;;;;;;;12.69;98.73;99856.81;10516093;28;20130;-63
2023/12/25 01:10:51;;;;;;;9.85;1.77;;;;;;;12.73;96.38;99858.31;10515652;28;20048;-63
2023/12/25 01:16:13;;;;;;;10.55;1.67;;;;;;;12.69;97.03;99852.44;10520893;28;20605;-63
2023/12/25 01:21:35;;;;;;;13.25;1.90;;;;;;;12.68;96.48;99866.34;10524669;28;20522;-63
2023/12/25 01:26:56;;;;;;;8.73;1.88;;;;;;;12.73;96.28;99864.34;10524431;28;20398;-63
2023/12/25 01:32:18;;;;;;;10.68;1.90;;;;;;;12.64;96.72;99859.66;10519781;28;20071;-62
2023/12/25 01:37:40;;;;;;;10.30;1.67;;;;;;;12.64;96.99;99859.66;10525732;28;20045;-62
2023/12/25 01:43:01;;;;;;;8.63;1.73;;;;;;;12.69;96.68;99849.84;10520759;28;20063;-62
2023/12/25 01:48:24;;;;;;;10.93;1.88;;;;;;;12.70;96.95;99882.69;10523087;28;20048;-62
2023/12/25 01:53:47;;;;;;;8.55;1.67;;;;;;;12.71;96.97;99884.34;10519760;28;20076;-63
2023/12/25 01:59:08;;;;;;;11.55;1.80;;;;;;;12.74;95.64;99899.78;10522590;28;20055;-62
2023/12/25 02:04:30;;;;;;;9.90;1.63;;;;;;;12.75;94.77;99913.56;10519846;28;20044;-62
2023/12/25 02:09:52;;;;;;;11.07;1.63;;;;;;;12.83;93.09;99924.41;10523341;28;20114;-62
2023/12/25 02:15:13;;;;;;;9.32;1.90;;;;;;;12.70;92.85;99916.44;10516728;28;20050;-62
2023/12/25 02:20:35;;;;;;;10.50;1.60;;;;;;;12.66;92.15;99917.50;10502544;28;20044;-62
2023/12/25 02:25:58;;;;;;;7.90;1.67;;;;;;;12.65;91.36;99928.84;10535307;28;20060;-63
2023/12/25 02:31:20;;;;;;;5.97;1.30;;;;;;;12.62;90.50;99928.97;10545137;27;20472;-62
2023/12/25 02:36:42;;;;;;;13.05;2.33;;;;;;;12.69;89.47;99935.50;10519387;28;20051;-63
2023/12/25 02:42:04;;;;;;;7.45;1.55;;;;;;;12.55;88.83;99940.59;10547339;27;20101;-62
2023/12/25 02:47:26;;;;;;;5.18;1.33;;;;;;;12.63;88.28;99946.25;10514584;28;20044;-62
2023/12/25 02:52:48;;;;;;;7.30;1.55;;;;;;;12.57;87.93;99949.16;10512195;28;20048;-62
2023/12/25 02:58:09;;;;;;;6.97;1.20;;;;;;;12.51;86.76;99948.59;10524826;28;20049;-63
2023/12/25 03:03:31;;;;;;;6.35;1.17;;;;;;;12.43;87.16;99961.16;10515452;28;20036;-63
2023/12/25 03:08:53;;;;;;;10.45;1.30;;;;;;;12.50;85.77;99981.53;10524458;28;20044;-62
2023/12/25 03:14:14;;;;;;;5.10;1.05;;;;;;;12.38;86.78;99966.56;10517100;28;20538;-62
2023/12/25 03:19:36;;;;;;;13.77;1.45;;;;;;;12.28;85.96;99980.94;10518008;28;20059;-62
2023/12/25 03:25:00;;;;;;;5.78;1.40;;;;;;;12.32;86.11;99971.25;10472556;28;20060;-62
2023/12/25 03:30:22;;;;;;;9.35;1.77;;;;;;;12.25;88.10;99981.06;10511750;28;20404;-62
2023/12/25 03:35:44;;;;;;;8.23;1.52;;;;;;;12.20;88.12;99977.03;10510263;28;20661;-62
2023/12/25 03:41:08;;;;;;;14.85;1.90;;;;;;;12.10;88.52;99982.69;10504678;28;20127;-63
2023/12/25 03:46:30;;;;;;;8.00;1.25;;;;;;;12.05;88.31;99987.28;10515720;28;20502;-62
2023/12/25 03:51:51;;;;;;;8.13;1.65;;;;;;;12.04;88.42;99989.94;10506246;28;20067;-62
2023/12/25 03:57:13;;;;;;;9.43;1.60;;;;;;;12.01;88.83;99996.09;10501970;28;20051;-62
2023/12/25 04:02:34;;;;;;;8.70;1.35;;;;;;;11.98;88.33;100010.97;10505337;28;20047;-63
2023/12/25 04:07:56;;;;;;;11.40;1.40;;;;;;;11.92;88.86;100014.72;10494637;28;20046;-63
2023/12/25 04:13:18;;;;;;;11.70;1.45;;;;;;;11.87;89.96;100046.94;10496267;28;20048;-62
2023/12/25 04:18:40;;;;;;;9.13;1.50;;;;;;;11.70;92.83;100036.56;10491033;28;20064;-62
2023/12/25 04:24:02;;;;;;;9.25;1.63;;;;;;;11.19;96.88;100036.34;10503678;28;20044;-62
2023/12/25 04:29:23;;;;;;;10.02;1.58;;;;;;;11.02;99.65;100050.06;10497280;28;20053;-63
2023/12/25 04:34:45;;;;;;;9.50;1.52;;;;;;;10.75;100.00;100053.84;10500738;28;20050;-61
2023/12/25 04:40:07;;;;;;;13.57;1.65;;;;;;;10.66;100.00;100061.97;10503887;28;20056;-62
2023/12/25 04:45:29;;;;;;;8.73;1.77;;;;;;;10.67;100.00;100061.94;10500221;28;20048;-62
2023/12/25 04:50:51;;;;;;;10.85;1.55;;;;;;;10.83;100.00;100068.13;10506596;28;20043;-61
2023/12/25 04:56:12;;;;;;;14.52;1.80;;;;;;;10.78;100.00;100071.81;10505056;28;20057;-61
2023/12/25 05:01:34;;;;;;;12.10;1.60;;;;;;;10.87;100.00;100076.59;10507354;28;20087;-61
2023/12/25 05:06:56;;;;;;;13.88;1.60;;;;;;;10.89;99.66;100085.13;10509006;28;20049;-61
2023/12/25 05:12:18;;;;;;;10.48;1.70;;;;;;;10.93;98.68;100077.16;10502659;28;20056;-61
2023/12/25 05:17:40;;;;;;;13.45;1.73;;;;;;;10.93;97.29;100082.34;10506883;28;20040;-61
2023/12/25 05:23:01;;;;;;;13.13;1.70;;;;;;;11.01;95.87;100085.44;10511803;28;20106;-61
2023/12/25 05:28:23;;;;;;;12.43;1.50;;;;;;;11.00;95.86;100103.63;10510312;28;20044;-61
2023/12/25 05:33:44;;;;;;;9.25;1.55;;;;;;;11.03;95.26;100103.50;10511091;28;20046;-62
2023/12/25 05:39:06;;;;;;;16.73;2.30;;;;;;;11.05;94.14;100109.44;10508816;28;20048;-62
2023/12/25 05:44:34;;;;;;;8.52;1.58;;;;;;;11.06;95.37;100109.38;10508691;28;20059;-62
2023/12/25 05:49:57;;;;;;;13.32;1.70;;;;;;;11.07;94.63;100116.25;10507471;28;20052;-62
2023/12/25 05:55:18;;;;;;;7.65;1.35;;;;;;;11.04;93.85;100105.19;10491461;28;20040;-62
2023/12/25 06:00:40;;;;;;;12.45;1.48;;;;;;;11.01;94.57;100110.47;10502335;28;20078;-62
2023/12/25 06:06:01;;;;;;;8.82;1.75;;;;;;;10.99;94.48;100131.25;10507882;28;20093;-61
2023/12/25 06:11:23;;;;;;;11.75;1.70;;;;;;;11.01;94.08;100136.38;10512514;28;20048;-62
2023/12/25 06:16:45;;;;;;;9.52;1.45;;;;;;;11.01;94.26;100142.41;10514637;28;20048;-62
2023/12/25 06:22:06;;;;;;;13.02;2.17;;;;;;;10.97;94.94;100145.16;10517833;28;20054;-62
2023/12/25 06:27:28;;;;;;;9.50;1.73;;;;;;;10.97;95.58;100152.94;10508670;28;20053;-61
2023/12/25 06:32:58;;;;;;;12.00;1.67;;;;;;;10.92;96.12;100168.69;10493352;28;20066;-62
2023/12/25 06:38:23;;;;;;;10.00;1.80;;;;;;;10.98;95.58;100168.44;10504779;28;20590;-63
2023/12/25 06:43:45;;;;;;;8.40;2.05;;;;;;;11.00;95.34;100182.16;10499984;28;20568;-62
2023/12/25 06:49:06;;;;;;;11.00;1.92;;;;;;;11.05;94.60;100180.19;10503451;28;20071;-63
2023/12/25 06:54:29;;;;;;;16.67;1.58;;;;;;;11.03;95.16;100192.38;10497856;28;20046;-62
2023/12/25 06:59:50;;;;;;;10.82;1.27;;;;;;;10.98;94.96;100189.13;10499321;28;20473;-62
2023/12/25 07:05:15;;;;;;;8.95;1.80;;;;;;;10.95;95.12;100189.25;10502487;28;20132;-63
2023/12/25 07:10:40;;;;;;;12.48;2.00;;;;;;;10.94;95.14;100197.09;10497673;28;20041;-63
2023/12/25 07:16:01;;;;;;;11.30;1.92;;;;;;;10.89;95.12;100205.06;10508955;28;20139;-62
2023/12/25 07:21:23;;;;;;;9.30;1.70;;;;;;;10.88;94.30;100208.53;10502039;28;20045;-62
2023/12/25 07:26:44;;;;;;;9.55;1.50;;;;;;;10.88;94.04;100212.84;10513864;28;20048;-63
2023/12/25 07:32:06;;;;;;;22.00;3.00;;;;;;;10.89;93.81;100225.75;10493274;28;20076;-62
2023/12/25 07:37:28;;;;;;;14.88;1.80;;;;;;;10.85;92.99;100239.72;10509005;28;20051;-62
2023/12/25 07:42:49;;;;;;;9.93;2.00;;;;;;;10.80;93.77;100235.63;10500748;28;20162;-62
2023/12/25 07:48:11;;;;;;;17.88;2.10;;;;;;;10.83;93.36;100246.72;10503036;28;20048;-62
2023/12/25 07:53:33;;;;;;;13.98;2.05;;;;;;;10.79;93.89;100250.31;10503390;28;20492;-62
2023/12/25 07:58:54;;;;;;;10.52;1.75;;;;;;;10.77;94.27;100270.22;10496607;28;20507;-62
2023/12/25 08:04:16;;;;;;;9.73;1.73;;;;;;;10.72;94.35;100274.75;10490819;28;20041;-63
2023/12/25 08:09:38;;;;;;;14.65;1.90;;;;;;;10.70;95.72;100280.88;10504992;28;20048;-63
2023/12/25 08:15:00;;;;;;;13.20;1.83;;;;;;;10.72;95.34;100276.50;10499978;28;20041;-62
2023/12/25 08:20:22;;;;;;;14.07;1.70;;;;;;;10.72;95.17;100279.94;10484353;28;20091;-63
2023/12/25 08:25:44;;;;;;;13.25;2.20;;;;;;;10.68;95.80;100288.72;10496987;28;20095;-63
2023/12/25 08:31:08;;;;;;;15.52;2.63;;;;;;;10.71;95.46;100293.75;10499447;28;20048;-63
2023/12/25 08:36:30;;;;;;;20.92;2.78;;;;;;;10.73;96.11;100302.31;10501499;28;20046;-64
2023/12/25 08:41:51;;;;;;;11.88;2.17;;;;;;;10.75;95.64;100308.25;10502363;28;20070;-63
2023/12/25 08:47:14;;;;;;;12.05;2.10;;;;;;;10.75;96.73;100320.38;10509165;28;20043;-64
2023/12/25 08:52:36;;;;;;;9.13;2.60;;;;;;;10.77;96.32;100324.56;10486205;28;20052;-63
2023/12/25 08:57:57;;;;;;;21.98;4.15;;;;;;;10.69;98.37;100321.47;10509484;28;20086;-62
2023/12/25 09:03:19;;;;;;;14.40;2.28;;;;;;;10.63;100.00;100331.19;10502788;28;20126;-64
2023/12/25 09:08:41;;;;;;;15.02;2.67;;;;;;;10.53;100.00;100353.16;10497051;28;20051;-63
2023/12/25 09:14:03;;;;;;;20.15;4.22;;;;;;;10.47;100.00;100356.81;10498973;28;20052;-63
2023/12/25 09:19:25;;;;;;;16.63;4.00;;;;;;;10.44;100.00;100356.91;10498189;28;20043;-63
2023/12/25 09:24:46;;;;;;;17.05;3.08;;;;;;;10.43;100.00;100364.72;10508845;28;20048;-63
2023/12/25 09:30:09;;;;;;;16.15;4.10;;;;;;;10.43;100.00;100381.09;10498100;28;20194;-63
2023/12/25 09:35:31;;;;;;;29.35;6.70;;;;;;;10.43;100.00;100386.25;10509889;28;20040;-63
2023/12/25 09:40:55;;;;;;;17.27;3.35;;;;;;;10.45;100.00;100384.47;10502131;28;20052;-63
2023/12/25 09:46:20;;;;;;;16.85;2.65;;;;;;;10.40;100.00;100396.69;10516167;28;20083;-63
2023/12/25 09:51:44;;;;;;;15.70;3.85;;;;;;;10.51;99.81;100399.75;10503405;28;20150;-63
2023/12/25 09:57:06;;;;;;;15.70;3.35;;;;;;;10.53;99.37;100413.47;10516843;28;20081;-63
2023/12/25 10:02:28;;;;;;;17.08;5.13;;;;;;;10.55;97.22;100416.03;10504047;28;20135;-63
2023/12/25 10:07:50;;;;;;;10.93;2.50;;;;;;;10.60;97.20;100414.94;10497930;28;20060;-63
2023/12/25 10:13:12;;;;;;;14.00;2.20;;;;;;;10.65;95.55;100418.22;10508906;28;20048;-63
2023/12/25 10:18:37;;;;;;;14.77;2.17;;;;;;;10.63;93.50;100412.25;10504823;28;20037;-63
2023/12/25 10:23:58;;;;;;;10.13;1.63;;;;;;;10.71;92.91;100420.56;10494535;28;20287;-63
2023/12/25 10:29:33;;;;;;;15.85;2.30;;;;;;;10.72;91.99;100440.38;10496925;28;20060;-63
2023/12/25 10:35:18;;;;;;;7.68;1.70;;;;;;;10.70;90.47;100416.28;10504444;28;20044;-63
2023/12/25 10:40:39;;;;;;;8.77;1.65;;;;;;;10.74;90.17;100425.63;10490982;28;20050;-62
2023/12/25 10:46:01;;;;;;;10.73;1.80;;;;;;;10.75;88.98;100442.00;10497918;28;20042;-62
2023/12/25 10:51:34;;;;;;;11.05;1.60;;;;;;;10.75;89.79;100460.13;10488649;28;20063;-63
2023/12/25 10:56:57;;;;;;;7.95;1.75;;;;;;;10.75;89.63;100429.91;10500128;28;20052;-63
2023/12/25 11:02:20;;;;;;;13.27;1.75;;;;;;;10.74;89.31;100435.13;10508155;28;20049;-63
2023/12/25 11:07:42;;;;;;;11.57;1.73;;;;;;;10.71;88.92;100438.66;10495495;28;20044;-63
2023/12/25 11:13:04;;;;;;;11.85;2.17;;;;;;;10.69;89.43;100427.56;10507236;28;20051;-63
2023/12/25 11:18:26;;;;;;;10.57;1.95;;;;;;;10.71;89.19;100437.84;10492607;28;20032;-63
2023/12/25 11:23:49;;;;;;;10.90;1.80;;;;;;;10.73;87.56;100423.94;10504846;28;20060;-63
2023/12/25 11:29:11;;;;;;;7.30;1.63;;;;;;;10.70;87.77;100452.50;10497733;28;20044;-64
2023/12/25 11:34:40;;;;;;;11.05;1.67;;;;;;;10.71;86.35;100459.38;10493658;28;20400;-63
2023/12/25 11:40:05;;;;;;;8.23;1.60;;;;;;;10.66;86.11;100463.03;10493232;28;20054;-64
2023/12/25 11:45:27;;;;;;;11.98;1.73;;;;;;;10.71;85.92;100459.38;10486108;28;20045;-64
2023/12/25 11:50:59;;;;;;;8.60;1.65;;;;;;;10.75;85.34;100466.13;10502321;28;20052;-64
2023/12/25 11:56:21;;;;;;;9.32;1.58;;;;;;;10.78;86.80;100445.31;10513897;28;20118;-64
2023/12/25 12:01:44;;;;;;;7.75;1.50;;;;;;;10.77;87.52;100466.91;10503407;28;20052;-64
2023/12/25 12:07:05;;;;;;;13.80;1.58;;;;;;;10.78;88.00;100472.94;10494173;28;20537;-64
2023/12/25 12:12:27;;;;;;;9.65;2.25;;;;;;;10.77;87.57;100453.97;10510345;28;20083;-64
2023/12/25 12:17:49;;;;;;;11.63;2.03;;;;;;;10.77;89.17;100469.50;10507832;28;20505;-64
2023/12/25 12:23:14;;;;;;;19.90;2.13;;;;;;;10.78;88.47;100476.38;10507744;28;20718;-64
2023/12/25 12:28:35;;;;;;;13.18;1.80;;;;;;;10.82;89.06;100451.22;10494745;28;20076;-64
2023/12/25 12:33:57;;;;;;;13.90;2.00;;;;;;;10.81;89.71;100452.97;10502128;28;20044;-64
2023/12/25 12:39:22;;;;;;;14.63;2.92;;;;;;;10.79;89.59;100457.34;10500928;28;20472;-64
2023/12/25 12:44:49;;;;;;;22.95;5.50;;;;;;;10.74;89.36;100454.09;10495615;28;20040;-64
2023/12/25 12:50:13;;;;;;;18.63;4.63;;;;;;;10.71;89.10;100443.84;10495159;28;20055;-64
2023/12/25 12:55:36;;;;;;;11.88;2.97;;;;;;;10.71;90.12;100459.38;10499457;28;20467;-65
2023/12/25 13:00:58;;;;;;;16.83;2.45;;;;;;;10.69;89.88;100463.78;10495697;28;20087;-63
2023/12/25 13:06:19;;;;;;;19.52;5.63;;;;;;;10.64;90.22;100477.78;10505474;28;20056;-64
2023/12/25 13:11:41;;;;;;;16.83;5.07;;;;;;;10.60;89.66;100496.91;10502683;28;20051;-64
2023/12/25 13:17:03;;;;;;;12.48;3.38;;;;;;;10.55;90.95;100484.13;10505308;28;20051;-64
2023/12/25 13:22:25;;;;;;;21.80;3.78;;;;;;;10.48;91.88;100461.94;10497224;28;20070;-63
2023/12/25 13:27:46;;;;;;;24.83;6.10;;;;;;;10.47;93.53;100460.28;10505704;28;20060;-64
2023/12/25 13:33:08;;;;;;;16.80;3.88;;;;;;;10.53;93.84;100480.72;10501685;28;20048;-64
2023/12/25 13:38:30;;;;;;;17.60;3.67;;;;;;;10.60;94.97;100466.66;10493556;28;20051;-64
2023/12/25 13:43:54;;;;;;;13.90;1.88;;;;;;;10.59;95.71;100465.00;10504017;28;20085;-63
2023/12/25 13:49:15;;;;;;;14.63;1.83;;;;;;;10.59;96.70;100475.34;10503553;28;20051;-64
2023/12/25 13:54:38;;;;;;;19.00;3.85;;;;;;;10.57;98.07;100477.13;10491083;28;20060;-64
2023/12/25 14:00:00;;;;;;;17.90;3.15;;;;;;;10.55;99.45;100489.28;10506341;28;20059;-63
2023/12/25 14:05:22;;;;;;;16.40;2.53;;;;;;;10.45;100.00;100482.75;10501633;28;20138;-63
2023/12/25 14:10:46;;;;;;;15.85;2.28;;;;;;;10.35;100.00;100502.06;10509172;28;20046;-63
2023/12/25 14:16:08;;;;;;;11.73;2.10;;;;;;;10.30;100.00;100478.13;10502979;28;20481;-64
2023/12/25 14:21:31;;;;;;;11.88;2.20;;;;;;;10.29;100.00;100466.09;10504899;28;20051;-64
2023/12/25 14:26:52;;;;;;;13.65;2.20;;;;;;;10.25;100.00;100464.50;10509584;28;20048;-63
2023/12/25 14:32:14;;;;;;;18.75;3.10;;;;;;;10.21;100.00;100478.44;10509044;28;20048;-64
2023/12/25 14:37:36;;;;;;;22.38;2.72;;;;;;;10.20;100.00;100483.66;10500490;28;20050;-64
2023/12/25 14:42:57;;;;;;;17.77;3.10;;;;;;;10.20;100.00;100487.06;10502780;28;20055;-64
2023/12/25 14:48:19;;;;;;;24.35;6.93;;;;;;;10.22;100.00;100500.78;10502465;28;20401;-64
2023/12/25 14:53:41;;;;;;;17.45;2.55;;;;;;;10.20;100.00;100476.72;10507566;28;20048;-64
2023/12/25 14:59:03;;;;;;;16.88;3.35;;;;;;;10.14;100.00;100487.31;10501598;28;20040;-64
2023/12/25 15:04:24;;;;;;;19.65;3.40;;;;;;;10.13;100.00;100488.19;10515569;28;20036;-63
2023/12/25 15:09:47;;;;;;;49.25;14.07;;;;;;;10.10;100.00;100490.88;10497413;28;20511;-64
2023/12/25 15:15:09;;;;;;;75.80;21.88;;;;;;;10.10;100.00;100470.19;10503082;28;22172;-63
2023/12/25 15:20:31;;;;;;;26.50;6.53;;;;;;;10.09;100.00;100458.16;10499392;28;20051;-64
2023/12/25 15:25:53;;;;;;;24.38;3.97;;;;;;;10.06;100.00;100473.75;10488992;28;20044;-64
2023/12/25 15:31:15;;;;;;;22.73;4.18;;;;;;;10.01;100.00;100493.75;10501078;28;20132;-63
2023/12/25 15:36:40;;;;;;;21.13;4.45;;;;;;;9.98;100.00;100517.13;10502570;28;20037;-64
2023/12/25 15:42:01;;;;;;;18.80;3.60;;;;;;;9.99;100.00;100504.13;10512039;28;20047;-64
2023/12/25 15:47:23;;;;;;;15.15;3.22;;;;;;;9.97;100.00;100490.41;10500583;28;20044;-63
2023/12/25 15:52:45;;;;;;;15.27;3.65;;;;;;;9.99;100.00;100501.53;10498314;28;20056;-64
2023/12/25 15:58:06;;;;;;;21.23;3.78;;;;;;;10.01;100.00;100501.50;10507913;28;20048;-64
2023/12/25 16:03:28;;;;;;;20.70;4.38;;;;;;;9.98;100.00;100480.94;10498738;28;20079;-64
2023/12/25 16:08:50;;;;;;;16.38;3.70;;;;;;;9.98;100.00;100499.03;10499468;28;20105;-64
2023/12/25 16:14:12;;;;;;;13.18;3.80;;;;;;;9.96;100.00;100499.03;10497091;28;20056;-64
2023/12/25 16:19:39;;;;;;;20.50;4.47;;;;;;;9.93;100.00;100490.53;10491827;28;21392;-63
2023/12/25 16:25:00;;;;;;;17.48;4.40;;;;;;;9.92;100.00;100486.28;10503787;28;20055;-63
2023/12/25 16:30:22;;;;;;;17.63;4.05;;;;;;;9.88;100.00;100484.69;10498479;28;20060;-64
2023/12/25 16:35:44;;;;;;;14.55;3.70;;;;;;;9.85;100.00;100485.63;10488281;28;20439;-64
2023/12/25 16:41:06;;;;;;;16.67;5.00;;;;;;;9.86;100.00;100478.72;10499728;28;20040;-64
2023/12/25 16:46:28;;;;;;;14.85;5.03;;;;;;;9.92;100.00;100470.78;10511478;28;20043;-63
2023/12/25 16:51:49;;;;;;;12.82;4.22;;;;;;;9.93;100.00;100456.94;10514121;28;20064;-63
2023/12/25 16:57:11;;;;;;;21.65;3.90;;;;;;;10.00;100.00;100453.25;10510265;28;20044;-63
2023/12/25 17:02:34;;;;;;;13.70;3.47;;;;;;;10.07;100.00;100445.25;10506718;28;21149;-63
2023/12/25 17:07:55;;;;;;;6.75;3.17;;;;;;;10.13;100.00;100449.41;10496495;28;20048;-63
2023/12/25 17:13:17;;;;;;;12.07;3.28;;;;;;;10.16;100.00;100451.91;10522699;28;20054;-63
2023/12/25 17:18:39;;;;;;;11.77;3.72;;;;;;;10.21;100.00;100449.13;10494875;28;20484;-63
2023/12/25 17:24:01;;;;;;;11.68;3.80;;;;;;;10.19;100.00;100451.78;10502073;28;20156;-63
2023/12/25 17:29:22;;;;;;;12.30;3.53;;;;;;;10.19;100.00;100454.38;10503720;28;20401;-62
2023/12/25 17:34:45;;;;;;;11.20;3.97;;;;;;;10.25;100.00;100477.44;10504234;28;20048;-62
2023/12/25 17:40:07;;;;;;;14.07;3.97;;;;;;;10.33;100.00;100477.19;10500989;28;20055;-62
2023/12/25 17:45:29;;;;;;;17.73;3.85;;;;;;;10.36;100.00;100488.25;10512695;28;20048;-62
2023/12/25 17:50:50;;;;;;;13.60;3.60;;;;;;;10.43;100.00;100492.31;10511176;28;20058;-62
2023/12/25 17:56:12;;;;;;;14.98;3.38;;;;;;;10.47;100.00;100473.22;10504037;28;20072;-61
2023/12/25 18:01:34;;;;;;;16.88;3.45;;;;;;;10.49;100.00;100462.81;10505004;28;20669;-62
2023/12/25 18:06:55;;;;;;;12.43;3.53;;;;;;;10.51;100.00;100466.19;10502590;28;20055;-62
2023/12/25 18:12:17;;;;;;;13.32;3.33;;;;;;;10.52;100.00;100468.72;10512979;28;20593;-62
2023/12/25 18:17:39;;;;;;;14.73;3.53;;;;;;;10.54;100.00;100466.91;10512089;28;20744;-62
2023/12/25 18:23:01;;;;;;;9.02;3.15;;;;;;;10.59;100.00;100465.00;10502091;28;20421;-62
2023/12/25 18:28:23;;;;;;;13.32;3.13;;;;;;;10.60;100.00;100464.09;10503148;28;20048;-62
2023/12/25 18:33:44;;;;;;;15.77;3.13;;;;;;;10.61;100.00;100463.19;10496218;28;20045;-62
2023/12/25 18:39:06;;;;;;;8.85;2.67;;;;;;;10.62;100.00;100454.53;10503143;28;20142;-62
2023/12/25 18:44:28;;;;;;;8.63;2.50;;;;;;;10.61;100.00;100442.50;10506775;28;20074;-62
2023/12/25 18:49:50;;;;;;;10.63;2.58;;;;;;;10.60;100.00;100447.75;10498451;28;20055;-62
2023/12/25 18:55:12;;;;;;;10.10;2.40;;;;;;;10.62;100.00;100436.41;10500858;28;20412;-62
2023/12/25 19:00:33;;;;;;;12.10;2.65;;;;;;;10.59;100.00;100418.44;10503758;28;20060;-62
2023/12/25 19:05:55;;;;;;;18.95;2.65;;;;;;;10.55;100.00;100403.91;10502926;28;20452;-62
2023/12/25 19:11:17;;;;;;;12.30;3.25;;;;;;;10.55;100.00;100396.16;10502224;28;20051;-62
2023/12/25 19:16:42;;;;;;;12.65;2.97;;;;;;;10.51;100.00;100367.88;10499612;28;20066;-63
2023/12/25 19:22:04;;;;;;;10.07;3.30;;;;;;;10.53;100.00;100379.84;10496634;28;20040;-63
2023/12/25 19:27:25;;;;;;;9.27;2.58;;;;;;;10.50;100.00;100361.00;10494099;28;20044;-63
2023/12/25 19:32:48;;;;;;;14.27;2.60;;;;;;;10.54;100.00;100363.44;10506128;28;20056;-62
2023/12/25 19:38:11;;;;;;;11.23;2.35;;;;;;;10.53;100.00;100361.72;10489712;28;20048;-63
2023/12/25 19:43:34;;;;;;;13.10;2.88;;;;;;;10.52;100.00;100352.31;10506135;28;20155;-62
2023/12/25 19:48:56;;;;;;;10.68;2.55;;;;;;;10.50;100.00;100355.84;10494904;28;20064;-63
2023/12/25 19:54:18;;;;;;;15.18;3.05;;;;;;;10.48;100.00;100337.78;10506945;28;20052;-62
2023/12/25 19:59:44;;;;;;;;;;;;;;;10.47;100.00;100336.13;10514548;28;20466;-63
2023/12/25 20:05:06;;;;;;;11.23;2.28;;;;;;;10.43;100.00;100334.53;10498192;28;19925;-64
2023/12/25 20:10:28;;;;;;;8.68;1.92;;;;;;;10.43;100.00;100334.53;10497307;28;20051;-63
2023/12/25 20:15:49;;;;;;;11.32;2.40;;;;;;;10.43;100.00;100319.03;10486801;28;20051;-63
2023/12/25 20:21:11;;;;;;;10.52;2.78;;;;;;;10.44;100.00;100314.69;10498710;28;20058;-63
2023/12/25 20:26:34;;;;;;;7.88;2.70;;;;;;;10.43;100.00;100303.50;10501278;28;20059;-63
2023/12/25 20:31:56;;;;;;;9.15;2.90;;;;;;;10.44;100.00;100314.69;10506782;28;20443;-63
2023/12/25 20:37:32;;;;;;;8.95;3.30;;;;;;;10.46;100.00;100307.69;10500391;28;20048;-63
2023/12/25 20:42:54;;;;;;;8.43;3.80;;;;;;;10.45;100.00;100296.53;10515281;28;20058;-63
2023/12/25 20:48:16;;;;;;;10.30;3.88;;;;;;;10.48;100.00;100293.81;10514465;28;20152;-63
2023/12/25 20:53:39;;;;;;;9.00;3.95;;;;;;;10.51;100.00;100285.94;10503451;28;20050;-63
2023/12/25 20:59:00;;;;;;;10.73;4.80;;;;;;;10.51;100.00;100274.75;10490954;28;20051;-63
2023/12/25 21:04:22;;;;;;;9.15;4.22;;;;;;;10.52;100.00;100268.66;10500122;28;20080;-63
2023/12/25 21:09:45;;;;;;;12.23;4.80;;;;;;;10.52;100.00;100251.41;10495957;28;20043;-64
2023/12/25 21:15:07;;;;;;;8.40;4.22;;;;;;;10.55;100.00;100255.63;10499407;28;20066;-63
2023/12/25 21:20:29;;;;;;;9.88;4.38;;;;;;;10.58;100.00;100248.59;10499094;28;20133;-63
2023/12/25 21:25:50;;;;;;;14.18;3.75;;;;;;;10.59;100.00;100250.25;10501579;28;21039;-63
2023/12/25 21:31:14;;;;;;;10.18;3.03;;;;;;;10.63;100.00;100244.06;10498632;28;20044;-63
2023/12/25 21:36:38;;;;;;;;;;;;;;;10.62;100.00;100242.38;10491821;28;20036;-63
2023/12/25 21:42:00;;;;;;;8.18;2.55;;;;;;;10.62;100.00;100232.03;10497178;28;19953;-63
2023/12/25 21:47:21;;;;;;;4.00;2.17;;;;;;;10.63;100.00;100230.28;10511822;28;20403;-63
2023/12/25 21:52:43;;;;;;;3.97;2.05;;;;;;;10.61;100.00;100224.31;10493933;28;20044;-63
2023/12/25 21:58:05;;;;;;;5.75;2.00;;;;;;;10.56;100.00;100227.13;10499459;28;20044;-63
2023/12/25 22:03:28;;;;;;;5.90;1.92;;;;;;;10.49;100.00;100225.69;10493326;28;20083;-62
2023/12/25 22:08:50;;;;;;;5.68;1.80;;;;;;;10.49;100.00;100217.06;10511032;28;20047;-63
2023/12/25 22:14:11;;;;;;;8.65;1.90;;;;;;;10.42;100.00;100219.03;10503141;28;20040;-63
2023/12/25 22:19:33;;;;;;;6.32;1.75;;;;;;;10.34;100.00;100205.59;10499602;28;20040;-63
2023/12/25 22:24:55;;;;;;;5.55;1.63;;;;;;;10.35;100.00;100207.25;10505120;28;20052;-63
2023/12/25 22:30:16;;;;;;;6.22;1.88;;;;;;;10.32;100.00;100202.22;10497933;28;20049;-63
2023/12/25 22:35:38;;;;;;;6.10;2.00;;;;;;;10.30;100.00;100203.16;10507553;28;20040;-63
2023/12/25 22:41:00;;;;;;;6.65;1.70;;;;;;;10.29;100.00;100206.66;10503448;28;20048;-63
2023/12/25 22:46:22;;;;;;;6.60;2.00;;;;;;;10.26;100.00;100209.34;10486428;28;20047;-63
2023/12/25 22:51:44;;;;;;;12.07;2.22;;;;;;;10.25;100.00;100207.69;10501191;28;20124;-62
2023/12/25 22:57:05;;;;;;;8.75;2.45;;;;;;;10.24;100.00;100209.41;10501198;28;20616;-63
2023/12/25 23:02:27;;;;;;;9.90;2.67;;;;;;;10.28;100.00;100213.56;10504487;28;20056;-63
2023/12/25 23:07:49;;;;;;;12.05;2.10;;;;;;;10.29;100.00;100212.69;10495267;28;20055;-62
2023/12/25 23:13:10;;;;;;;6.55;2.03;;;;;;;10.31;100.00;100208.25;10503398;28;20378;-63
2023/12/25 23:18:32;;;;;;;6.65;2.15;;;;;;;10.26;100.00;100186.94;10504094;28;20043;-62
2023/12/25 23:23:54;;;;;;;6.70;2.28;;;;;;;10.32;100.00;100181.53;10500827;28;20135;-62
2023/12/25 23:29:16;;;;;;;5.65;2.03;;;;;;;10.30;100.00;100183.31;10501754;28;20094;-62
2023/12/25 23:34:37;;;;;;;7.07;2.17;;;;;;;10.32;100.00;100163.41;10501232;28;20062;-63
2023/12/25 23:40:03;;;;;;;8.57;1.90;;;;;;;10.28;100.00;100168.75;10502199;28;20041;-66
2023/12/25 23:45:24;;;;;;;7.05;1.65;;;;;;;10.24;100.00;100155.13;10500436;28;20492;-63
2023/12/25 23:50:46;;;;;;;5.05;1.58;;;;;;;10.22;100.00;100138.81;10497488;28;20134;-62
2023/12/25 23:56:08;;;;;;;4.70;1.40;;;;;;;10.23;100.00;100143.09;10506078;28;20059;-63
